createdAt,value
2017-08-03T00:01:51.693Z,70.20
2017-08-03T00:04:18.616Z,70.50
2017-08-03T00:06:45.469Z,70.00
2017-08-03T00:09:12.328Z,70.00
2017-08-03T00:11:39.255Z,69.80
2017-08-03T00:14:06.181Z,70.00
2017-08-03T00:16:33.028Z,70.00
2017-08-03T00:18:59.957Z,70.10
2017-08-03T00:21:27.564Z,70.30
2017-08-03T00:23:54.408Z,70.20
2017-08-03T00:26:21.420Z,70.10
2017-08-03T00:28:48.287Z,70.30
2017-08-03T00:31:15.204Z,70.00
2017-08-03T00:33:42.865Z,70.30
2017-08-03T00:36:10.518Z,70.40
2017-08-03T00:38:37.366Z,69.80
2017-08-03T00:41:04.284Z,69.50
2017-08-03T00:43:31.143Z,69.60
2017-08-03T00:45:58.005Z,70.20
2017-08-03T00:48:25.661Z,70.90
2017-08-03T00:50:52.507Z,70.20
2017-08-03T00:53:20.171Z,69.60
2017-08-03T00:55:47.747Z,70.90
2017-08-03T00:58:15.403Z,70.20
2017-08-03T01:00:42.266Z,70.10
2017-08-03T01:03:09.205Z,70.60
2017-08-03T01:05:36.069Z,70.50
2017-08-03T01:08:02.992Z,70.10
2017-08-03T01:10:30.681Z,70.10
2017-08-03T01:12:57.579Z,70.00
2017-08-03T01:15:25.195Z,70.20
2017-08-03T01:17:52.134Z,70.20
2017-08-03T01:20:18.987Z,70.10
2017-08-03T01:22:45.853Z,69.90
2017-08-03T01:25:12.776Z,69.90
2017-08-03T01:27:39.712Z,69.90
2017-08-03T01:30:06.665Z,69.80
2017-08-03T01:32:33.532Z,70.00
2017-08-03T01:35:00.383Z,70.20
2017-08-03T01:37:27.320Z,70.10
2017-08-03T01:39:54.250Z,70.30
2017-08-03T01:42:21.184Z,70.40
2017-08-03T01:44:48.060Z,70.40
2017-08-03T01:47:14.995Z,70.60
2017-08-03T01:49:41.908Z,70.80
2017-08-03T01:52:08.800Z,70.80
2017-08-03T01:54:35.756Z,70.70
2017-08-03T01:57:02.714Z,71.10
2017-08-03T01:59:29.588Z,71.40
2017-08-03T02:01:56.472Z,71.00
2017-08-03T02:04:23.420Z,70.90
2017-08-03T02:06:50.385Z,70.70
2017-08-03T02:09:17.399Z,70.70
2017-08-03T02:11:44.363Z,70.70
2017-08-03T02:14:11.217Z,70.60
2017-08-03T02:16:38.263Z,70.90
2017-08-03T02:19:05.087Z,70.80
2017-08-03T02:21:31.931Z,70.90
2017-08-03T02:23:58.839Z,70.90
2017-08-03T02:26:25.751Z,70.90
2017-08-03T02:28:52.643Z,71.20
2017-08-03T02:31:19.582Z,71.50
2017-08-03T02:33:46.444Z,71.70
2017-08-03T02:36:13.310Z,71.40
2017-08-03T02:38:40.226Z,71.20
2017-08-03T02:41:07.089Z,71.30
2017-08-03T02:43:34.016Z,71.30
2017-08-03T02:46:00.971Z,71.40
2017-08-03T02:48:27.828Z,70.60
2017-08-03T02:50:54.753Z,70.60
2017-08-03T02:53:21.600Z,70.70
2017-08-03T02:55:48.459Z,71.20
2017-08-03T02:58:15.470Z,71.90
2017-08-03T03:00:43.058Z,71.90
2017-08-03T03:03:09.915Z,71.90
2017-08-03T03:05:36.879Z,72.20
2017-08-03T03:08:03.722Z,72.00
2017-08-03T03:10:30.638Z,72.10
2017-08-03T03:12:57.551Z,71.80
2017-08-03T03:15:25.137Z,71.40
2017-08-03T03:17:52.055Z,71.40
2017-08-03T03:20:19.654Z,71.60
2017-08-03T03:22:46.507Z,71.50
2017-08-03T03:25:13.431Z,71.00
2017-08-03T03:27:40.276Z,71.10
2017-08-03T03:30:07.142Z,71.00
2017-08-03T03:32:34.067Z,71.30
2017-08-03T03:35:00.931Z,71.20
2017-08-03T03:37:27.849Z,71.40
2017-08-03T03:39:54.784Z,71.20
2017-08-03T03:42:22.371Z,71.80
2017-08-03T03:44:49.231Z,71.80
2017-08-03T03:47:16.199Z,71.40
2017-08-03T03:49:43.047Z,71.30
2017-08-03T03:52:09.905Z,71.70
2017-08-03T03:54:36.823Z,72.20
2017-08-03T03:57:03.741Z,72.60
2017-08-03T03:59:30.598Z,72.80
2017-08-03T04:01:57.452Z,72.80
2017-08-03T04:04:24.371Z,72.70
2017-08-03T04:06:51.235Z,72.60
2017-08-03T04:09:18.076Z,72.60
2017-08-03T04:11:44.999Z,72.40
2017-08-03T04:14:11.907Z,72.30
2017-08-03T04:16:38.755Z,72.40
2017-08-03T04:19:05.692Z,72.20
2017-08-03T04:21:32.533Z,72.00
2017-08-03T04:23:59.367Z,71.60
2017-08-03T04:26:36.314Z,71.70
2017-08-03T04:29:04.052Z,71.80
2017-08-03T04:31:30.908Z,72.40
2017-08-03T04:33:57.747Z,73.60
2017-08-03T04:36:24.668Z,73.90
2017-08-03T04:38:52.311Z,74.60
2017-08-03T04:41:19.227Z,73.90
2017-08-03T04:43:46.129Z,73.00
2017-08-03T04:46:12.968Z,73.00
2017-08-03T04:48:40.644Z,73.00
2017-08-03T04:51:08.234Z,72.80
2017-08-03T04:53:35.132Z,72.80
2017-08-03T04:56:01.989Z,72.60
2017-08-03T04:58:29.626Z,72.60
2017-08-03T05:00:56.559Z,72.50
2017-08-03T05:03:23.477Z,72.80
2017-08-03T05:05:50.324Z,73.10
2017-08-03T05:08:17.233Z,73.80
2017-08-03T05:10:44.811Z,74.40
2017-08-03T05:13:11.742Z,74.40
2017-08-03T05:15:39.339Z,75.10
2017-08-03T05:18:06.174Z,75.00
2017-08-03T05:20:33.104Z,74.20
2017-08-03T05:23:00.010Z,74.10
2017-08-03T05:25:26.934Z,73.90
2017-08-03T05:27:53.764Z,75.10
2017-08-03T05:30:20.607Z,76.30
2017-08-03T05:32:47.503Z,77.60
2017-08-03T05:35:15.226Z,79.40
2017-08-03T05:37:42.174Z,79.40
2017-08-03T05:40:09.024Z,79.40
2017-08-03T05:42:35.895Z,79.50
2017-08-03T05:45:02.870Z,79.50
2017-08-03T05:47:29.715Z,80.00
2017-08-03T05:49:56.632Z,79.90
2017-08-03T05:52:23.543Z,79.90
2017-08-03T05:54:50.396Z,80.40
2017-08-03T05:57:17.314Z,79.90
2017-08-03T05:59:44.156Z,79.70
2017-08-03T06:02:11.003Z,80.30
2017-08-03T06:04:37.919Z,80.40
2017-08-03T06:07:05.504Z,80.80
2017-08-03T06:09:32.347Z,80.70
2017-08-03T06:11:59.316Z,80.60
2017-08-03T06:14:26.147Z,80.50
2017-08-03T06:16:53.049Z,81.20
2017-08-03T06:19:20.705Z,81.70
2017-08-03T06:21:47.631Z,81.30
2017-08-03T06:24:14.486Z,80.30
2017-08-03T06:26:41.331Z,80.60
2017-08-03T06:29:08.232Z,80.90
2017-08-03T06:31:35.073Z,80.10
2017-08-03T06:34:01.902Z,80.10
2017-08-03T06:36:28.805Z,80.30
2017-08-03T06:38:55.655Z,80.90
2017-08-03T06:41:22.567Z,80.60
2017-08-03T06:43:49.676Z,80.60
2017-08-03T06:46:17.252Z,80.70
2017-08-03T06:48:44.167Z,80.60
2017-08-03T06:51:11.750Z,79.90
2017-08-03T06:53:38.671Z,79.80
2017-08-03T06:56:05.515Z,79.90
2017-08-03T06:58:32.380Z,79.60
2017-08-03T07:01:00.067Z,78.80
2017-08-03T07:03:26.883Z,78.80
2017-08-03T07:05:53.789Z,78.90
2017-08-03T07:08:20.631Z,79.30
2017-08-03T07:10:47.559Z,79.00
2017-08-03T07:13:14.408Z,80.00
2017-08-03T07:15:41.388Z,78.70
2017-08-03T07:18:08.277Z,78.20
2017-08-03T07:20:35.139Z,78.30
2017-08-03T07:23:02.055Z,78.50
2017-08-03T07:25:28.916Z,77.90
2017-08-03T07:27:55.839Z,76.20
2017-08-03T07:30:22.692Z,77.30
2017-08-03T07:32:49.636Z,76.60
2017-08-03T07:35:16.592Z,76.20
2017-08-03T07:37:43.438Z,77.20
2017-08-03T07:40:10.387Z,77.10
2017-08-03T07:42:37.263Z,76.70
2017-08-03T07:45:04.189Z,76.60
2017-08-03T07:47:31.102Z,76.00
2017-08-03T07:49:57.956Z,76.20
2017-08-03T07:52:24.879Z,76.70
2017-08-03T07:54:52.491Z,77.10
2017-08-03T07:57:19.426Z,77.00
2017-08-03T07:59:46.268Z,77.10
2017-08-03T08:02:13.533Z,76.50
2017-08-03T08:04:40.384Z,75.30
2017-08-03T08:07:07.243Z,76.00
2017-08-03T08:09:34.176Z,75.50
2017-08-03T08:12:01.043Z,76.60
2017-08-03T08:14:27.972Z,76.20
2017-08-03T08:16:54.880Z,76.60
2017-08-03T08:19:21.743Z,76.40
2017-08-03T08:21:48.667Z,76.70
2017-08-03T08:24:15.547Z,77.30
2017-08-03T08:26:42.447Z,77.40
2017-08-03T08:29:09.326Z,77.40
2017-08-03T08:31:36.194Z,77.50
2017-08-03T08:34:03.123Z,78.00
2017-08-03T08:36:29.983Z,77.90
2017-08-03T08:38:56.895Z,78.00
2017-08-03T08:41:23.781Z,79.70
2017-08-03T08:43:50.624Z,79.10
2017-08-03T08:46:17.559Z,77.60
2017-08-03T08:48:44.428Z,78.50
2017-08-03T08:51:11.276Z,78.30
2017-08-03T08:53:38.188Z,77.90
2017-08-03T08:56:05.053Z,76.10
2017-08-03T08:58:32.000Z,76.30
2017-08-03T09:00:58.850Z,76.20
2017-08-03T09:03:25.791Z,75.70
2017-08-03T09:05:52.629Z,76.90
2017-08-03T09:08:19.470Z,77.20
2017-08-03T09:10:46.400Z,77.00
2017-08-03T09:13:13.329Z,76.80
2017-08-03T09:15:40.241Z,76.80
2017-08-03T09:18:07.867Z,77.10
2017-08-03T09:20:34.779Z,77.10
2017-08-03T09:23:01.620Z,75.90
2017-08-03T09:25:28.543Z,76.70
2017-08-03T09:27:56.213Z,76.50
2017-08-03T09:30:23.145Z,76.40
2017-08-03T09:32:50.759Z,76.10
2017-08-03T09:35:17.603Z,76.10
2017-08-03T09:37:44.538Z,76.10
2017-08-03T09:40:11.490Z,76.30
2017-08-03T09:42:38.412Z,75.60
2017-08-03T09:45:05.284Z,75.70
2017-08-03T09:47:32.220Z,75.40
2017-08-03T09:49:59.168Z,74.60
2017-08-03T09:52:26.032Z,73.70
2017-08-03T09:54:52.884Z,73.70
2017-08-03T09:57:19.812Z,74.00
2017-08-03T09:59:46.703Z,74.00
2017-08-03T10:02:13.649Z,74.30
2017-08-03T10:04:41.308Z,73.10
2017-08-03T10:07:08.991Z,73.80
2017-08-03T10:09:35.852Z,73.80
2017-08-03T10:12:02.796Z,73.20
2017-08-03T10:14:29.806Z,72.30
2017-08-03T10:16:57.399Z,71.90
2017-08-03T10:19:24.251Z,71.90
2017-08-03T10:21:51.332Z,71.70
2017-08-03T10:24:18.181Z,72.00
2017-08-03T10:26:45.108Z,71.90
2017-08-03T10:29:11.981Z,72.30
2017-08-03T10:31:38.869Z,71.60
2017-08-03T10:34:05.788Z,71.60
2017-08-03T10:36:33.363Z,71.10
2017-08-03T10:39:00.292Z,71.00
2017-08-03T10:41:27.159Z,70.00
2017-08-03T10:43:54.000Z,69.00
2017-08-03T10:46:20.972Z,68.60
2017-08-03T10:48:47.819Z,68.40
2017-08-03T10:51:14.755Z,68.20
2017-08-03T10:53:41.633Z,68.30
2017-08-03T10:56:08.510Z,67.90
2017-08-03T10:58:36.167Z,68.30
2017-08-03T11:01:03.772Z,68.50
2017-08-03T11:03:30.752Z,68.50
2017-08-03T11:05:57.625Z,68.80
2017-08-03T11:08:25.303Z,68.40
2017-08-03T11:10:52.229Z,68.40
2017-08-03T11:13:19.091Z,68.10
2017-08-03T11:15:46.083Z,68.30
2017-08-03T11:18:12.959Z,68.40
2017-08-03T11:20:39.952Z,67.60
2017-08-03T11:23:06.887Z,66.90
2017-08-03T11:25:33.810Z,66.80
2017-08-03T11:28:01.476Z,64.90
2017-08-03T11:30:29.096Z,63.40
2017-08-03T11:32:55.944Z,63.40
2017-08-03T11:35:22.894Z,64.00
2017-08-03T11:37:49.753Z,63.20
2017-08-03T11:40:16.712Z,62.10
2017-08-03T11:42:44.300Z,61.80
2017-08-03T11:45:11.273Z,61.30
2017-08-03T11:47:38.138Z,61.20
2017-08-03T11:50:05.096Z,61.20
2017-08-03T11:52:31.947Z,60.40
2017-08-03T11:54:58.885Z,59.00
2017-08-03T11:57:25.760Z,58.30
2017-08-03T11:59:53.379Z,58.50
2017-08-03T12:02:20.325Z,58.50
2017-08-03T12:04:47.201Z,59.10
2017-08-03T12:07:14.884Z,59.10
2017-08-03T12:09:41.732Z,59.00
2017-08-03T12:12:08.603Z,59.00
2017-08-03T12:14:35.544Z,58.00
2017-08-03T12:17:02.503Z,57.70
2017-08-03T12:19:29.442Z,57.30
2017-08-03T12:21:56.384Z,57.50
2017-08-03T12:24:23.232Z,58.30
2017-08-03T12:26:50.220Z,56.50
2017-08-03T12:29:24.806Z,56.80
2017-08-03T12:31:51.727Z,56.10
2017-08-03T12:34:18.602Z,56.30
2017-08-03T12:36:45.529Z,55.60
2017-08-03T12:39:12.398Z,55.60
2017-08-03T12:41:39.347Z,55.60
2017-08-03T12:44:06.304Z,54.20
2017-08-03T12:46:33.249Z,54.60
2017-08-03T12:49:00.140Z,54.80
2017-08-03T12:51:27.818Z,55.30
2017-08-03T12:53:54.727Z,55.20
2017-08-03T12:56:21.704Z,55.20
2017-08-03T12:58:48.564Z,56.00
2017-08-03T13:01:15.419Z,55.30
2017-08-03T13:03:42.387Z,55.10
2017-08-03T13:06:09.256Z,55.30
2017-08-03T13:08:36.201Z,54.70
2017-08-03T13:11:03.111Z,54.80
2017-08-03T13:13:29.978Z,54.90
2017-08-03T13:15:56.986Z,53.70
2017-08-03T13:18:23.873Z,53.60
2017-08-03T13:20:50.818Z,53.40
2017-08-03T13:23:17.698Z,51.90
2017-08-03T13:25:44.653Z,51.60
2017-08-03T13:28:11.503Z,51.50
2017-08-03T13:30:38.433Z,51.10
2017-08-03T13:33:06.145Z,50.60
2017-08-03T13:35:33.020Z,50.50
2017-08-03T13:37:59.898Z,51.40
2017-08-03T13:40:26.844Z,49.80
2017-08-03T13:42:53.744Z,50.20
2017-08-03T13:45:20.614Z,49.50
2017-08-03T13:47:48.325Z,49.80
2017-08-03T13:50:15.231Z,49.00
2017-08-03T13:52:42.907Z,48.50
2017-08-03T13:55:09.767Z,48.40
2017-08-03T13:57:36.694Z,48.70
2017-08-03T14:00:03.639Z,49.60
2017-08-03T14:02:30.560Z,48.80
2017-08-03T14:04:57.438Z,47.30
2017-08-03T14:07:24.388Z,47.70
2017-08-03T14:09:51.266Z,48.60
2017-08-03T14:12:18.116Z,48.40
2017-08-03T14:14:45.111Z,48.20
2017-08-03T14:17:12.720Z,46.70
2017-08-03T14:19:39.662Z,46.60
2017-08-03T14:22:06.501Z,46.90
2017-08-03T14:24:33.380Z,46.60
2017-08-03T14:27:00.347Z,47.30
2017-08-03T14:29:27.955Z,46.90
2017-08-03T14:31:54.822Z,46.90
2017-08-03T14:34:21.772Z,43.30
2017-08-03T14:36:48.644Z,41.00
2017-08-03T14:39:16.314Z,40.60
2017-08-03T14:41:43.999Z,40.60
2017-08-03T14:44:10.872Z,40.50
2017-08-03T14:46:37.817Z,41.10
2017-08-03T14:49:04.751Z,40.30
2017-08-03T14:51:31.704Z,40.50
2017-08-03T14:53:58.665Z,40.70
2017-08-03T14:56:25.547Z,40.80
2017-08-03T14:58:53.179Z,41.30
2017-08-03T15:01:20.124Z,41.20
2017-08-03T15:03:46.973Z,41.80
2017-08-03T15:06:13.838Z,41.10
2017-08-03T15:08:41.537Z,40.80
2017-08-03T15:11:08.507Z,40.80
2017-08-03T15:13:35.369Z,40.50
2017-08-03T15:16:02.312Z,40.50
2017-08-03T15:18:29.216Z,41.10
2017-08-03T15:20:56.112Z,41.60
2017-08-03T15:23:23.063Z,42.20
2017-08-03T15:25:49.942Z,41.50
2017-08-03T15:28:16.890Z,42.50
2017-08-03T15:30:43.760Z,41.50
2017-08-03T15:33:10.624Z,41.70
2017-08-03T15:35:37.584Z,41.30
2017-08-03T15:38:04.535Z,41.30
2017-08-03T15:40:31.487Z,42.00
2017-08-03T15:42:59.101Z,42.90
2017-08-03T15:45:26.008Z,42.70
2017-08-03T15:47:53.763Z,43.50
2017-08-03T15:50:21.388Z,42.10
2017-08-03T15:52:48.332Z,42.00
2017-08-03T15:55:15.200Z,41.90
2017-08-03T15:57:42.156Z,42.80
2017-08-03T16:00:09.011Z,43.10
2017-08-03T16:02:36.653Z,44.00
2017-08-03T16:05:03.627Z,43.90
2017-08-03T16:07:31.224Z,43.80
2017-08-03T16:09:58.165Z,43.80
2017-08-03T16:12:25.036Z,43.90
2017-08-03T16:14:51.902Z,44.50
2017-08-03T16:17:18.931Z,45.00
2017-08-03T16:19:45.774Z,45.30
2017-08-03T16:22:12.659Z,46.10
2017-08-03T16:24:40.332Z,46.70
2017-08-03T16:27:07.191Z,46.70
2017-08-03T16:29:34.035Z,46.70
2017-08-03T16:32:00.987Z,46.60
2017-08-03T16:34:27.854Z,47.10
2017-08-03T16:36:54.775Z,47.70
2017-08-03T16:39:21.642Z,47.60
2017-08-03T16:41:48.581Z,48.50
2017-08-03T16:44:15.507Z,48.90
2017-08-03T16:46:42.370Z,48.80
2017-08-03T16:49:09.300Z,48.30
2017-08-03T16:51:36.163Z,48.00
2017-08-03T16:54:03.038Z,47.80
2017-08-03T16:56:30.452Z,48.00
2017-08-03T16:58:57.345Z,48.40
2017-08-03T17:01:24.218Z,48.20
2017-08-03T17:03:51.138Z,47.60
2017-08-03T17:06:18.006Z,47.80
2017-08-03T17:08:45.027Z,48.00
2017-08-03T17:11:11.901Z,47.40
2017-08-03T17:13:38.800Z,47.10
2017-08-03T17:16:05.728Z,46.90
2017-08-03T17:18:33.664Z,47.50
2017-08-03T17:21:00.611Z,47.70
2017-08-03T17:23:27.466Z,47.20
2017-08-03T17:25:54.387Z,47.30
2017-08-03T17:28:22.059Z,47.60
2017-08-03T17:30:49.009Z,47.60
2017-08-03T17:33:15.966Z,47.90
2017-08-03T17:35:42.905Z,47.30
2017-08-03T17:38:09.764Z,47.60
2017-08-03T17:40:36.712Z,47.70
2017-08-03T17:43:03.586Z,47.80
2017-08-03T17:45:30.438Z,48.20
2017-08-03T17:47:57.362Z,48.90
2017-08-03T17:50:24.229Z,49.20
2017-08-03T17:52:51.168Z,49.10
2017-08-03T17:55:18.035Z,49.20
2017-08-03T17:57:44.892Z,49.30
2017-08-03T18:00:12.570Z,49.50
2017-08-03T18:02:39.556Z,49.50
2017-08-03T18:05:06.500Z,49.80
2017-08-03T18:07:33.360Z,49.90
2017-08-03T18:10:00.283Z,49.80
2017-08-03T18:12:27.232Z,50.00
2017-08-03T18:14:54.091Z,50.00
2017-08-03T18:17:20.948Z,50.50
2017-08-03T18:19:47.891Z,50.20
2017-08-03T18:22:14.772Z,50.60
2017-08-03T18:24:41.696Z,51.00
2017-08-03T18:27:09.401Z,51.10
2017-08-03T18:29:36.344Z,51.10
2017-08-03T18:32:03.208Z,51.30
2017-08-03T18:34:30.075Z,51.80
2017-08-03T18:36:57.021Z,51.50
2017-08-03T18:39:23.867Z,51.90
2017-08-03T18:41:50.696Z,52.00
2017-08-03T18:44:17.608Z,52.20
2017-08-03T18:46:44.555Z,52.40
2017-08-03T18:49:11.436Z,52.50
2017-08-03T18:51:38.314Z,52.70
2017-08-03T18:54:05.971Z,53.10
2017-08-03T18:56:32.818Z,52.80
2017-08-03T18:58:59.760Z,53.40
2017-08-03T19:01:26.617Z,54.20
2017-08-03T19:03:53.461Z,54.40
2017-08-03T19:06:21.140Z,54.70
2017-08-03T19:08:48.020Z,54.70
2017-08-03T19:11:14.895Z,55.00
2017-08-03T19:13:41.831Z,54.90
2017-08-03T19:16:08.755Z,55.00
2017-08-03T19:18:35.663Z,55.30
2017-08-03T19:21:02.529Z,55.60
2017-08-03T19:23:29.735Z,55.20
2017-08-03T19:25:56.596Z,55.10
2017-08-03T19:28:24.372Z,54.90
2017-08-03T19:30:51.242Z,54.80
2017-08-03T19:33:18.132Z,54.00
2017-08-03T19:35:46.065Z,53.80
2017-08-03T19:38:13.029Z,53.90
2017-08-03T19:40:39.919Z,53.80
2017-08-03T19:43:06.857Z,53.30
2017-08-03T19:45:34.537Z,52.90
2017-08-03T19:48:01.434Z,52.80
2017-08-03T19:50:28.383Z,52.80
2017-08-03T19:52:55.304Z,52.50
2017-08-03T19:55:22.232Z,53.10
2017-08-03T19:57:49.165Z,52.60
2017-08-03T20:00:16.023Z,52.90
2017-08-03T20:02:42.876Z,53.10
2017-08-03T20:05:09.823Z,52.50
2017-08-03T20:07:43.784Z,52.40
2017-08-03T20:10:12.649Z,52.60
2017-08-03T20:12:39.569Z,52.70
2017-08-03T20:15:06.427Z,52.70
2017-08-03T20:17:33.428Z,52.80
2017-08-03T20:20:01.084Z,53.20
2017-08-03T20:22:28.783Z,53.10
2017-08-03T20:24:55.737Z,53.10
2017-08-03T20:27:22.597Z,52.80
2017-08-03T20:29:49.512Z,52.60
2017-08-03T20:32:16.404Z,52.60
2017-08-03T20:34:43.319Z,52.80
2017-08-03T20:37:10.199Z,53.50
2017-08-03T20:39:37.136Z,53.60
2017-08-03T20:42:03.984Z,53.30
2017-08-03T20:44:30.825Z,54.30
2017-08-03T20:46:57.745Z,54.60
2017-08-03T20:49:24.590Z,54.90
2017-08-03T20:51:51.524Z,54.80
2017-08-03T20:54:18.440Z,55.30
2017-08-03T20:56:46.905Z,57.10
2017-08-03T20:59:13.822Z,57.10
2017-08-03T21:01:40.672Z,58.10
2017-08-03T21:04:07.608Z,59.10
2017-08-03T21:06:34.514Z,59.50
2017-08-03T21:09:01.440Z,59.70
2017-08-03T21:11:29.101Z,59.20
2017-08-03T21:13:56.691Z,59.40
2017-08-03T21:16:23.626Z,59.00
2017-08-03T21:18:50.486Z,59.00
2017-08-03T21:21:17.363Z,59.00
2017-08-03T21:23:44.308Z,59.00
2017-08-03T21:26:11.247Z,59.50
2017-08-03T21:28:38.098Z,58.80
2017-08-03T21:31:05.053Z,58.40
2017-08-03T21:33:31.979Z,58.10
2017-08-03T21:35:58.821Z,58.00
2017-08-03T21:38:25.747Z,57.90
2017-08-03T21:40:52.676Z,57.70
2017-08-03T21:43:19.527Z,57.60
2017-08-03T21:45:46.450Z,57.90
2017-08-03T21:48:14.047Z,58.00
2017-08-03T21:50:40.907Z,57.80
2017-08-03T21:53:07.893Z,58.00
2017-08-03T21:55:34.752Z,58.10
2017-08-03T21:58:02.376Z,58.20
2017-08-03T22:00:41.424Z,58.10
2017-08-03T22:03:08.284Z,58.00
2017-08-03T22:05:35.270Z,58.10
2017-08-03T22:08:02.315Z,58.40
2017-08-03T22:10:29.160Z,58.40
2017-08-03T22:12:56.008Z,58.30
2017-08-03T22:15:22.954Z,58.30
2017-08-03T22:17:49.887Z,58.50
2017-08-03T22:20:16.740Z,58.60
2017-08-03T22:22:50.734Z,58.50
2017-08-03T22:25:17.587Z,58.80
2017-08-03T22:27:44.533Z,58.70
2017-08-03T22:30:11.511Z,58.90
2017-08-03T22:32:38.449Z,59.00
2017-08-03T22:35:05.304Z,59.20
2017-08-03T22:37:32.159Z,59.40
2017-08-03T22:39:59.080Z,59.60
2017-08-03T22:42:25.994Z,60.00
2017-08-03T22:44:52.994Z,60.10
2017-08-03T22:47:19.848Z,60.10
2017-08-03T22:49:46.777Z,60.20
2017-08-03T22:52:13.639Z,60.10
2017-08-03T22:54:40.583Z,60.20
2017-08-03T22:57:07.440Z,60.30
2017-08-03T22:59:34.279Z,60.30
2017-08-03T23:02:01.327Z,60.30
2017-08-03T23:04:28.175Z,60.30
2017-08-03T23:06:55.043Z,60.20
2017-08-03T23:09:22.711Z,60.40
2017-08-03T23:11:49.555Z,60.30
2017-08-03T23:14:16.483Z,60.30
2017-08-03T23:16:44.142Z,60.60
2017-08-03T23:19:11.132Z,60.30
2017-08-03T23:21:37.976Z,60.30
2017-08-03T23:24:04.815Z,59.90
2017-08-03T23:26:31.731Z,59.80
2017-08-03T23:28:59.451Z,59.90
2017-08-03T23:31:26.407Z,59.90
2017-08-03T23:33:53.261Z,59.90
2017-08-03T23:36:20.119Z,59.60
2017-08-03T23:38:47.784Z,59.80
2017-08-03T23:41:14.696Z,59.80
2017-08-03T23:43:41.564Z,59.90
2017-08-03T23:46:08.405Z,60.20
2017-08-03T23:48:35.330Z,60.80
2017-08-03T23:51:02.196Z,60.90
2017-08-03T23:53:29.127Z,60.90
2017-08-03T23:55:55.977Z,61.30
2017-08-03T23:58:22.839Z,61.50
